Terminal Aerodrome Forecast
Issued by NWS

Home | Current Version | Previous Version | Text Only | Print | Product List | Glossary On
Versions: 1 2 3 4 5 6 7 8 9 10 11 12 13 14 15 16 17 18 19
362
FTUS44 KCRP 220922 AAA
TAFLRD
TAF AMD
KLRD 220922Z 2209/2306 32014G19KT P6SM SKC
      TEMPO 2209/2212 29011KT
     FM221600 30032G41KT P6SM SKC
     FM222200 33015G20KT P6SM SKC
     FM230100 34009KT P6SM SKC=

USA.gov is the U.S. government's official web portal to all federal, state and local government web resources and services.